sensor_id;sensor_type;location;lat;lon;timestamp;P1;durP1;ratioP1;P2;durP2;ratioP2
8407;SDS011;4241;48.452;9.216;2023-06-22T00:01:17;488.30;;;248.87;;
8407;SDS011;4241;48.452;9.216;2023-06-22T00:03:44;485.20;;;243.70;;
8407;SDS011;4241;48.452;9.216;2023-06-22T00:06:11;484.07;;;241.00;;
8407;SDS011;4241;48.452;9.216;2023-06-22T00:08:38;495.03;;;253.57;;
8407;SDS011;4241;48.452;9.216;2023-06-22T00:11:05;485.43;;;241.73;;
8407;SDS011;4241;48.452;9.216;2023-06-22T00:13:34;485.03;;;243.53;;
8407;SDS011;4241;48.452;9.216;2023-06-22T00:16:01;484.73;;;241.97;;
8407;SDS011;4241;48.452;9.216;2023-06-22T00:18:28;484.73;;;242.97;;
8407;SDS011;4241;48.452;9.216;2023-06-22T00:20:55;485.90;;;248.23;;
8407;SDS011;4241;48.452;9.216;2023-06-22T00:23:23;486.13;;;243.27;;
8407;SDS011;4241;48.452;9.216;2023-06-22T00:25:50;482.57;;;237.83;;
8407;SDS011;4241;48.452;9.216;2023-06-22T00:28:18;485.47;;;241.50;;
8407;SDS011;4241;48.452;9.216;2023-06-22T00:30:46;483.97;;;238.70;;
8407;SDS011;4241;48.452;9.216;2023-06-22T00:33:13;486.50;;;240.03;;
8407;SDS011;4241;48.452;9.216;2023-06-22T00:35:41;485.40;;;238.63;;
8407;SDS011;4241;48.452;9.216;2023-06-22T00:38:08;488.73;;;244.23;;
8407;SDS011;4241;48.452;9.216;2023-06-22T00:40:35;483.33;;;237.23;;
8407;SDS011;4241;48.452;9.216;2023-06-22T00:43:02;483.33;;;238.03;;
8407;SDS011;4241;48.452;9.216;2023-06-22T00:45:30;491.43;;;244.33;;
8407;SDS011;4241;48.452;9.216;2023-06-22T00:47:59;485.17;;;238.63;;
8407;SDS011;4241;48.452;9.216;2023-06-22T00:50:27;484.20;;;238.17;;
8407;SDS011;4241;48.452;9.216;2023-06-22T00:52:59;484.70;;;237.17;;
8407;SDS011;4241;48.452;9.216;2023-06-22T00:55:27;490.73;;;243.10;;
8407;SDS011;4241;48.452;9.216;2023-06-22T00:57:54;482.33;;;230.57;;
8407;SDS011;4241;48.452;9.216;2023-06-22T01:00:22;482.00;;;225.70;;
8407;SDS011;4241;48.452;9.216;2023-06-22T01:02:50;481.03;;;229.30;;
8407;SDS011;4241;48.452;9.216;2023-06-22T01:05:18;482.70;;;227.03;;
8407;SDS011;4241;48.452;9.216;2023-06-22T01:07:53;484.17;;;228.83;;
8407;SDS011;4241;48.452;9.216;2023-06-22T01:10:25;483.33;;;230.03;;
8407;SDS011;4241;48.452;9.216;2023-06-22T01:12:55;481.20;;;224.10;;
8407;SDS011;4241;48.452;9.216;2023-06-22T01:15:27;489.10;;;234.07;;
8407;SDS011;4241;48.452;9.216;2023-06-22T01:17:56;481.97;;;230.27;;
8407;SDS011;4241;48.452;9.216;2023-06-22T01:20:24;485.87;;;231.90;;
8407;SDS011;4241;48.452;9.216;2023-06-22T01:22:57;479.90;;;223.23;;
8407;SDS011;4241;48.452;9.216;2023-06-22T01:25:26;487.00;;;227.67;;
8407;SDS011;4241;48.452;9.216;2023-06-22T01:27:56;481.00;;;223.53;;
8407;SDS011;4241;48.452;9.216;2023-06-22T01:30:27;479.17;;;220.83;;
8407;SDS011;4241;48.452;9.216;2023-06-22T01:32:56;481.90;;;225.73;;
8407;SDS011;4241;48.452;9.216;2023-06-22T01:35:23;486.77;;;228.47;;
8407;SDS011;4241;48.452;9.216;2023-06-22T01:37:51;479.67;;;221.03;;
8407;SDS011;4241;48.452;9.216;2023-06-22T01:40:18;479.00;;;220.60;;
8407;SDS011;4241;48.452;9.216;2023-06-22T01:42:46;479.33;;;219.57;;
8407;SDS011;4241;48.452;9.216;2023-06-22T01:45:14;479.50;;;220.30;;
8407;SDS011;4241;48.452;9.216;2023-06-22T01:47:42;479.50;;;221.27;;
8407;SDS011;4241;48.452;9.216;2023-06-22T01:50:10;479.87;;;224.80;;
8407;SDS011;4241;48.452;9.216;2023-06-22T01:52:37;478.00;;;217.30;;
8407;SDS011;4241;48.452;9.216;2023-06-22T01:55:04;481.50;;;222.53;;
8407;SDS011;4241;48.452;9.216;2023-06-22T01:57:33;482.40;;;226.90;;
8407;SDS011;4241;48.452;9.216;2023-06-22T02:00:01;480.30;;;222.70;;
8407;SDS011;4241;48.452;9.216;2023-06-22T02:02:30;479.43;;;220.77;;
8407;SDS011;4241;48.452;9.216;2023-06-22T02:05:01;480.00;;;219.57;;
8407;SDS011;4241;48.452;9.216;2023-06-22T02:07:31;479.37;;;219.27;;
8407;SDS011;4241;48.452;9.216;2023-06-22T02:09:59;480.03;;;221.20;;
8407;SDS011;4241;48.452;9.216;2023-06-22T02:12:28;479.73;;;218.33;;
8407;SDS011;4241;48.452;9.216;2023-06-22T02:14:56;481.90;;;219.10;;
8407;SDS011;4241;48.452;9.216;2023-06-22T02:17:23;478.83;;;214.37;;
8407;SDS011;4241;48.452;9.216;2023-06-22T02:19:51;479.00;;;215.73;;
8407;SDS011;4241;48.452;9.216;2023-06-22T02:22:19;486.03;;;223.33;;
8407;SDS011;4241;48.452;9.216;2023-06-22T02:24:46;476.93;;;212.37;;
8407;SDS011;4241;48.452;9.216;2023-06-22T02:27:13;477.03;;;212.80;;
8407;SDS011;4241;48.452;9.216;2023-06-22T02:29:40;476.10;;;211.67;;
8407;SDS011;4241;48.452;9.216;2023-06-22T02:32:07;476.27;;;211.30;;
8407;SDS011;4241;48.452;9.216;2023-06-22T02:34:35;478.27;;;216.03;;
8407;SDS011;4241;48.452;9.216;2023-06-22T02:37:02;481.70;;;214.87;;
8407;SDS011;4241;48.452;9.216;2023-06-22T02:39:31;478.03;;;215.10;;
8407;SDS011;4241;48.452;9.216;2023-06-22T02:41:58;481.07;;;217.00;;
8407;SDS011;4241;48.452;9.216;2023-06-22T02:44:25;477.40;;;210.40;;
8407;SDS011;4241;48.452;9.216;2023-06-22T02:46:52;478.10;;;214.60;;
8407;SDS011;4241;48.452;9.216;2023-06-22T02:49:20;478.23;;;211.43;;
8407;SDS011;4241;48.452;9.216;2023-06-22T02:51:47;485.10;;;224.13;;
8407;SDS011;4241;48.452;9.216;2023-06-22T02:54:15;476.50;;;210.00;;
8407;SDS011;4241;48.452;9.216;2023-06-22T02:56:44;476.10;;;208.40;;
8407;SDS011;4241;48.452;9.216;2023-06-22T02:59:11;476.43;;;208.23;;
8407;SDS011;4241;48.452;9.216;2023-06-22T03:01:38;477.53;;;212.93;;
8407;SDS011;4241;48.452;9.216;2023-06-22T03:04:06;478.17;;;210.60;;
8407;SDS011;4241;48.452;9.216;2023-06-22T03:06:33;477.47;;;213.67;;
8407;SDS011;4241;48.452;9.216;2023-06-22T03:09:01;475.33;;;209.60;;
8407;SDS011;4241;48.452;9.216;2023-06-22T03:11:28;476.93;;;210.50;;
8407;SDS011;4241;48.452;9.216;2023-06-22T03:13:57;477.03;;;206.63;;
8407;SDS011;4241;48.452;9.216;2023-06-22T03:16:24;477.60;;;210.93;;
8407;SDS011;4241;48.452;9.216;2023-06-22T03:18:52;474.67;;;207.40;;
8407;SDS011;4241;48.452;9.216;2023-06-22T03:21:19;478.00;;;212.93;;
8407;SDS011;4241;48.452;9.216;2023-06-22T03:23:46;477.63;;;209.03;;
8407;SDS011;4241;48.452;9.216;2023-06-22T03:26:16;476.13;;;208.50;;
8407;SDS011;4241;48.452;9.216;2023-06-22T03:28:43;476.17;;;209.30;;
8407;SDS011;4241;48.452;9.216;2023-06-22T03:31:11;477.13;;;211.30;;
8407;SDS011;4241;48.452;9.216;2023-06-22T03:33:39;475.87;;;208.43;;
8407;SDS011;4241;48.452;9.216;2023-06-22T03:36:06;476.10;;;208.83;;
8407;SDS011;4241;48.452;9.216;2023-06-22T03:38:34;474.87;;;205.83;;
8407;SDS011;4241;48.452;9.216;2023-06-22T03:41:01;475.10;;;203.87;;
8407;SDS011;4241;48.452;9.216;2023-06-22T03:43:28;476.33;;;205.77;;
8407;SDS011;4241;48.452;9.216;2023-06-22T03:45:55;474.70;;;204.17;;
8407;SDS011;4241;48.452;9.216;2023-06-22T03:48:24;475.60;;;206.20;;
8407;SDS011;4241;48.452;9.216;2023-06-22T03:50:51;479.47;;;211.23;;
8407;SDS011;4241;48.452;9.216;2023-06-22T03:53:18;475.23;;;203.17;;
8407;SDS011;4241;48.452;9.216;2023-06-22T03:55:49;477.43;;;207.50;;
8407;SDS011;4241;48.452;9.216;2023-06-22T03:58:16;474.03;;;203.33;;
8407;SDS011;4241;48.452;9.216;2023-06-22T04:00:44;476.80;;;208.03;;
8407;SDS011;4241;48.452;9.216;2023-06-22T04:03:11;478.20;;;208.10;;
8407;SDS011;4241;48.452;9.216;2023-06-22T04:05:40;481.10;;;214.70;;
8407;SDS011;4241;48.452;9.216;2023-06-22T04:08:07;476.67;;;208.17;;
8407;SDS011;4241;48.452;9.216;2023-06-22T04:10:35;475.57;;;205.77;;
8407;SDS011;4241;48.452;9.216;2023-06-22T04:13:02;475.07;;;204.77;;
8407;SDS011;4241;48.452;9.216;2023-06-22T04:15:29;486.90;;;216.27;;
8407;SDS011;4241;48.452;9.216;2023-06-22T04:17:56;476.87;;;211.37;;
8407;SDS011;4241;48.452;9.216;2023-06-22T04:20:23;478.40;;;209.97;;
8407;SDS011;4241;48.452;9.216;2023-06-22T04:22:52;477.27;;;212.33;;
8407;SDS011;4241;48.452;9.216;2023-06-22T04:25:20;480.03;;;212.93;;
8407;SDS011;4241;48.452;9.216;2023-06-22T04:27:47;476.27;;;209.63;;
8407;SDS011;4241;48.452;9.216;2023-06-22T04:30:14;476.47;;;210.20;;
8407;SDS011;4241;48.452;9.216;2023-06-22T04:32:42;486.67;;;218.97;;
8407;SDS011;4241;48.452;9.216;2023-06-22T04:35:09;476.90;;;212.00;;
8407;SDS011;4241;48.452;9.216;2023-06-22T04:37:36;477.03;;;212.40;;
8407;SDS011;4241;48.452;9.216;2023-06-22T04:40:06;482.13;;;215.50;;
8407;SDS011;4241;48.452;9.216;2023-06-22T04:42:34;476.57;;;211.77;;
8407;SDS011;4241;48.452;9.216;2023-06-22T04:45:02;478.10;;;212.83;;
8407;SDS011;4241;48.452;9.216;2023-06-22T04:47:29;480.20;;;218.20;;
8407;SDS011;4241;48.452;9.216;2023-06-22T04:49:57;476.67;;;211.77;;
8407;SDS011;4241;48.452;9.216;2023-06-22T04:52:24;479.67;;;213.53;;
8407;SDS011;4241;48.452;9.216;2023-06-22T04:54:51;477.50;;;211.37;;
8407;SDS011;4241;48.452;9.216;2023-06-22T04:57:22;481.00;;;217.30;;
8407;SDS011;4241;48.452;9.216;2023-06-22T04:59:57;478.63;;;218.23;;
8407;SDS011;4241;48.452;9.216;2023-06-22T05:02:36;478.00;;;213.43;;
8407;SDS011;4241;48.452;9.216;2023-06-22T05:05:11;482.93;;;219.83;;
8407;SDS011;4241;48.452;9.216;2023-06-22T05:07:39;478.13;;;215.10;;
8407;SDS011;4241;48.452;9.216;2023-06-22T05:10:09;479.27;;;217.67;;
8407;SDS011;4241;48.452;9.216;2023-06-22T05:12:38;480.03;;;216.63;;
8407;SDS011;4241;48.452;9.216;2023-06-22T05:15:05;478.30;;;217.43;;
8407;SDS011;4241;48.452;9.216;2023-06-22T05:17:33;480.47;;;223.13;;
8407;SDS011;4241;48.452;9.216;2023-06-22T05:20:00;481.27;;;226.20;;
8407;SDS011;4241;48.452;9.216;2023-06-22T05:22:28;478.77;;;220.47;;
8407;SDS011;4241;48.452;9.216;2023-06-22T05:24:55;480.97;;;225.23;;
8407;SDS011;4241;48.452;9.216;2023-06-22T05:27:22;479.10;;;221.67;;
8407;SDS011;4241;48.452;9.216;2023-06-22T05:29:50;478.63;;;222.43;;
8407;SDS011;4241;48.452;9.216;2023-06-22T05:32:17;477.70;;;221.47;;
8407;SDS011;4241;48.452;9.216;2023-06-22T05:34:45;481.10;;;225.90;;
8407;SDS011;4241;48.452;9.216;2023-06-22T05:37:12;482.77;;;231.50;;
8407;SDS011;4241;48.452;9.216;2023-06-22T05:39:39;482.93;;;230.50;;
8407;SDS011;4241;48.452;9.216;2023-06-22T05:42:07;483.50;;;229.17;;
8407;SDS011;4241;48.452;9.216;2023-06-22T05:44:34;482.63;;;230.27;;
8407;SDS011;4241;48.452;9.216;2023-06-22T05:47:04;482.50;;;230.30;;
8407;SDS011;4241;48.452;9.216;2023-06-22T05:49:31;484.63;;;232.33;;
8407;SDS011;4241;48.452;9.216;2023-06-22T05:51:58;493.17;;;242.50;;
8407;SDS011;4241;48.452;9.216;2023-06-22T05:54:26;492.20;;;242.60;;
8407;SDS011;4241;48.452;9.216;2023-06-22T05:56:54;484.50;;;239.80;;
8407;SDS011;4241;48.452;9.216;2023-06-22T05:59:21;483.90;;;237.80;;
8407;SDS011;4241;48.452;9.216;2023-06-22T06:01:48;484.57;;;240.73;;
8407;SDS011;4241;48.452;9.216;2023-06-22T06:04:17;484.50;;;241.57;;
8407;SDS011;4241;48.452;9.216;2023-06-22T06:06:45;484.63;;;243.80;;
8407;SDS011;4241;48.452;9.216;2023-06-22T06:09:13;485.70;;;247.47;;
8407;SDS011;4241;48.452;9.216;2023-06-22T06:11:40;487.07;;;247.97;;
8407;SDS011;4241;48.452;9.216;2023-06-22T06:14:07;487.63;;;253.03;;
8407;SDS011;4241;48.452;9.216;2023-06-22T06:16:34;490.93;;;256.17;;
8407;SDS011;4241;48.452;9.216;2023-06-22T06:19:01;487.63;;;254.17;;
8407;SDS011;4241;48.452;9.216;2023-06-22T06:21:30;489.13;;;256.13;;
8407;SDS011;4241;48.452;9.216;2023-06-22T06:23:57;490.30;;;259.33;;
8407;SDS011;4241;48.452;9.216;2023-06-22T06:26:24;488.63;;;260.23;;
8407;SDS011;4241;48.452;9.216;2023-06-22T06:28:55;491.13;;;262.13;;
8407;SDS011;4241;48.452;9.216;2023-06-22T06:31:22;492.20;;;262.77;;
8407;SDS011;4241;48.452;9.216;2023-06-22T06:33:49;492.77;;;265.93;;
8407;SDS011;4241;48.452;9.216;2023-06-22T06:36:16;492.40;;;269.03;;
8407;SDS011;4241;48.452;9.216;2023-06-22T06:38:45;491.73;;;268.43;;
8407;SDS011;4241;48.452;9.216;2023-06-22T06:41:12;490.70;;;266.60;;
8407;SDS011;4241;48.452;9.216;2023-06-22T06:43:39;492.43;;;272.70;;
8407;SDS011;4241;48.452;9.216;2023-06-22T06:46:07;491.90;;;277.87;;
8407;SDS011;4241;48.452;9.216;2023-06-22T06:48:35;491.57;;;275.03;;
8407;SDS011;4241;48.452;9.216;2023-06-22T06:51:02;495.47;;;280.17;;
8407;SDS011;4241;48.452;9.216;2023-06-22T06:53:29;494.70;;;285.67;;
8407;SDS011;4241;48.452;9.216;2023-06-22T06:55:57;494.37;;;283.40;;
8407;SDS011;4241;48.452;9.216;2023-06-22T06:58:24;495.07;;;286.90;;
8407;SDS011;4241;48.452;9.216;2023-06-22T07:00:52;495.93;;;290.13;;
8407;SDS011;4241;48.452;9.216;2023-06-22T07:03:19;496.83;;;293.50;;
8407;SDS011;4241;48.452;9.216;2023-06-22T07:05:46;496.87;;;292.27;;
8407;SDS011;4241;48.452;9.216;2023-06-22T07:08:13;497.37;;;296.70;;
8407;SDS011;4241;48.452;9.216;2023-06-22T07:10:40;499.67;;;306.13;;
8407;SDS011;4241;48.452;9.216;2023-06-22T07:13:08;498.93;;;303.73;;
8407;SDS011;4241;48.452;9.216;2023-06-22T07:15:36;501.40;;;307.97;;
8407;SDS011;4241;48.452;9.216;2023-06-22T07:18:03;499.90;;;310.70;;
8407;SDS011;4241;48.452;9.216;2023-06-22T07:20:30;499.73;;;313.80;;
8407;SDS011;4241;48.452;9.216;2023-06-22T07:22:57;498.33;;;311.57;;
8407;SDS011;4241;48.452;9.216;2023-06-22T07:25:24;506.33;;;320.33;;
8407;SDS011;4241;48.452;9.216;2023-06-22T07:27:58;500.30;;;318.80;;
8407;SDS011;4241;48.452;9.216;2023-06-22T07:30:27;502.10;;;321.93;;
8407;SDS011;4241;48.452;9.216;2023-06-22T07:32:55;501.10;;;324.47;;
8407;SDS011;4241;48.452;9.216;2023-06-22T07:35:22;505.57;;;329.83;;
8407;SDS011;4241;48.452;9.216;2023-06-22T07:37:49;502.07;;;327.13;;
8407;SDS011;4241;48.452;9.216;2023-06-22T07:40:16;501.73;;;328.53;;
8407;SDS011;4241;48.452;9.216;2023-06-22T07:42:44;500.77;;;330.07;;
8407;SDS011;4241;48.452;9.216;2023-06-22T07:45:13;502.53;;;330.23;;
8407;SDS011;4241;48.452;9.216;2023-06-22T07:47:41;503.33;;;338.23;;
8407;SDS011;4241;48.452;9.216;2023-06-22T07:50:09;503.43;;;336.73;;
8407;SDS011;4241;48.452;9.216;2023-06-22T07:52:36;502.07;;;336.57;;
8407;SDS011;4241;48.452;9.216;2023-06-22T07:55:03;505.00;;;344.33;;
8407;SDS011;4241;48.452;9.216;2023-06-22T07:57:31;504.80;;;344.83;;
8407;SDS011;4241;48.452;9.216;2023-06-22T07:59:58;504.73;;;346.27;;
8407;SDS011;4241;48.452;9.216;2023-06-22T08:02:26;506.83;;;353.87;;
8407;SDS011;4241;48.452;9.216;2023-06-22T08:04:54;506.30;;;356.80;;
8407;SDS011;4241;48.452;9.216;2023-06-22T08:07:21;507.13;;;358.00;;
8407;SDS011;4241;48.452;9.216;2023-06-22T08:09:48;507.47;;;362.23;;
8407;SDS011;4241;48.452;9.216;2023-06-22T08:12:15;511.73;;;369.53;;
8407;SDS011;4241;48.452;9.216;2023-06-22T08:14:43;509.83;;;369.23;;
8407;SDS011;4241;48.452;9.216;2023-06-22T08:17:11;507.47;;;362.60;;
8407;SDS011;4241;48.452;9.216;2023-06-22T08:19:39;509.40;;;373.37;;
8407;SDS011;4241;48.452;9.216;2023-06-22T08:22:08;508.03;;;372.37;;
8407;SDS011;4241;48.452;9.216;2023-06-22T08:24:35;513.43;;;384.60;;
8407;SDS011;4241;48.452;9.216;2023-06-22T08:27:03;510.73;;;380.63;;
8407;SDS011;4241;48.452;9.216;2023-06-22T08:29:30;510.70;;;381.53;;
8407;SDS011;4241;48.452;9.216;2023-06-22T08:31:57;511.97;;;387.13;;
8407;SDS011;4241;48.452;9.216;2023-06-22T08:34:24;511.97;;;388.50;;
8407;SDS011;4241;48.452;9.216;2023-06-22T08:36:52;510.83;;;384.33;;
8407;SDS011;4241;48.452;9.216;2023-06-22T08:39:21;511.07;;;383.53;;
8407;SDS011;4241;48.452;9.216;2023-06-22T08:41:48;510.03;;;382.70;;
8407;SDS011;4241;48.452;9.216;2023-06-22T08:44:18;512.60;;;382.93;;
8407;SDS011;4241;48.452;9.216;2023-06-22T08:46:45;510.13;;;380.00;;
8407;SDS011;4241;48.452;9.216;2023-06-22T08:49:12;507.23;;;375.40;;
8407;SDS011;4241;48.452;9.216;2023-06-22T08:51:40;511.07;;;383.87;;
8407;SDS011;4241;48.452;9.216;2023-06-22T08:54:07;512.60;;;389.30;;
8407;SDS011;4241;48.452;9.216;2023-06-22T08:56:35;510.97;;;385.57;;
8407;SDS011;4241;48.452;9.216;2023-06-22T08:59:02;512.13;;;386.63;;
8407;SDS011;4241;48.452;9.216;2023-06-22T09:01:32;512.70;;;390.07;;
8407;SDS011;4241;48.452;9.216;2023-06-22T09:04:00;513.97;;;393.57;;
8407;SDS011;4241;48.452;9.216;2023-06-22T09:06:27;512.33;;;396.43;;
8407;SDS011;4241;48.452;9.216;2023-06-22T09:08:56;513.90;;;401.03;;
8407;SDS011;4241;48.452;9.216;2023-06-22T09:11:24;514.97;;;405.03;;
8407;SDS011;4241;48.452;9.216;2023-06-22T09:13:53;513.15;;;405.65;;
8407;SDS011;4241;48.452;9.216;2023-06-22T09:16:20;513.47;;;407.45;;
8407;SDS011;4241;48.452;9.216;2023-06-22T09:18:47;515.33;;;415.83;;
8407;SDS011;4241;48.452;9.216;2023-06-22T09:21:15;514.33;;;411.55;;
8407;SDS011;4241;48.452;9.216;2023-06-22T09:23:42;516.80;;;414.48;;
8407;SDS011;4241;48.452;9.216;2023-06-22T09:26:12;514.58;;;412.98;;
8407;SDS011;4241;48.452;9.216;2023-06-22T09:28:39;516.47;;;415.80;;
8407;SDS011;4241;48.452;9.216;2023-06-22T09:31:07;514.53;;;415.15;;
8407;SDS011;4241;48.452;9.216;2023-06-22T09:33:35;514.60;;;417.63;;
8407;SDS011;4241;48.452;9.216;2023-06-22T09:36:03;515.50;;;418.15;;
8407;SDS011;4241;48.452;9.216;2023-06-22T09:38:32;515.53;;;418.20;;
8407;SDS011;4241;48.452;9.216;2023-06-22T09:41:01;515.33;;;419.70;;
8407;SDS011;4241;48.452;9.216;2023-06-22T09:43:28;514.60;;;420.83;;
8407;SDS011;4241;48.452;9.216;2023-06-22T09:45:58;516.17;;;425.20;;
8407;SDS011;4241;48.452;9.216;2023-06-22T09:48:26;516.78;;;428.08;;
8407;SDS011;4241;48.452;9.216;2023-06-22T09:50:54;517.50;;;430.90;;
8407;SDS011;4241;48.452;9.216;2023-06-22T09:53:21;517.90;;;431.65;;
8407;SDS011;4241;48.452;9.216;2023-06-22T09:55:48;516.20;;;428.50;;
8407;SDS011;4241;48.452;9.216;2023-06-22T09:58:15;518.05;;;431.65;;
8407;SDS011;4241;48.452;9.216;2023-06-22T10:00:42;517.35;;;431.88;;
8407;SDS011;4241;48.452;9.216;2023-06-22T10:03:10;517.08;;;426.30;;
8407;SDS011;4241;48.452;9.216;2023-06-22T10:05:38;521.30;;;439.08;;
8407;SDS011;4241;48.452;9.216;2023-06-22T10:08:05;514.80;;;423.33;;
8407;SDS011;4241;48.452;9.216;2023-06-22T10:10:34;516.33;;;423.75;;
8407;SDS011;4241;48.452;9.216;2023-06-22T10:13:02;516.88;;;428.58;;
8407;SDS011;4241;48.452;9.216;2023-06-22T10:15:34;522.15;;;437.63;;
8407;SDS011;4241;48.452;9.216;2023-06-22T10:18:01;515.50;;;427.10;;
8407;SDS011;4241;48.452;9.216;2023-06-22T10:20:28;515.67;;;427.70;;
8407;SDS011;4241;48.452;9.216;2023-06-22T10:22:57;516.15;;;433.90;;
8407;SDS011;4241;48.452;9.216;2023-06-22T10:25:24;521.80;;;435.00;;
8407;SDS011;4241;48.452;9.216;2023-06-22T10:27:51;529.17;;;445.98;;
8407;SDS011;4241;48.452;9.216;2023-06-22T10:30:18;517.28;;;437.55;;
8407;SDS011;4241;48.452;9.216;2023-06-22T10:32:45;520.00;;;447.30;;
8407;SDS011;4241;48.452;9.216;2023-06-22T10:35:12;517.13;;;440.08;;
8407;SDS011;4241;48.452;9.216;2023-06-22T10:37:41;523.42;;;444.85;;
8407;SDS011;4241;48.452;9.216;2023-06-22T10:40:10;517.90;;;441.10;;
8407;SDS011;4241;48.452;9.216;2023-06-22T10:42:38;522.10;;;450.83;;
8407;SDS011;4241;48.452;9.216;2023-06-22T10:45:05;518.80;;;443.15;;
8407;SDS011;4241;48.452;9.216;2023-06-22T10:47:33;516.13;;;439.45;;
8407;SDS011;4241;48.452;9.216;2023-06-22T10:50:00;519.28;;;444.15;;
8407;SDS011;4241;48.452;9.216;2023-06-22T10:52:27;518.70;;;437.48;;
8407;SDS011;4241;48.452;9.216;2023-06-22T10:54:54;517.00;;;433.67;;
8407;SDS011;4241;48.452;9.216;2023-06-22T10:57:23;515.30;;;431.88;;
8407;SDS011;4241;48.452;9.216;2023-06-22T10:59:50;516.45;;;432.73;;
8407;SDS011;4241;48.452;9.216;2023-06-22T11:02:17;516.15;;;432.33;;
8407;SDS011;4241;48.452;9.216;2023-06-22T11:04:44;515.47;;;433.80;;
8407;SDS011;4241;48.452;9.216;2023-06-22T11:07:12;522.20;;;446.15;;
8407;SDS011;4241;48.452;9.216;2023-06-22T11:09:39;521.20;;;446.13;;
8407;SDS011;4241;48.452;9.216;2023-06-22T11:12:07;517.42;;;444.20;;
8407;SDS011;4241;48.452;9.216;2023-06-22T11:14:35;517.33;;;443.42;;
8407;SDS011;4241;48.452;9.216;2023-06-22T11:17:02;518.75;;;446.30;;
8407;SDS011;4241;48.452;9.216;2023-06-22T11:19:29;519.63;;;446.58;;
8407;SDS011;4241;48.452;9.216;2023-06-22T11:21:57;520.75;;;450.13;;
8407;SDS011;4241;48.452;9.216;2023-06-22T11:24:24;518.85;;;450.05;;
8407;SDS011;4241;48.452;9.216;2023-06-22T11:26:51;519.80;;;447.30;;
8407;SDS011;4241;48.452;9.216;2023-06-22T11:29:18;518.60;;;443.60;;
8407;SDS011;4241;48.452;9.216;2023-06-22T11:31:47;517.80;;;440.83;;
8407;SDS011;4241;48.452;9.216;2023-06-22T11:34:14;518.30;;;440.88;;
8407;SDS011;4241;48.452;9.216;2023-06-22T11:36:41;515.85;;;438.27;;
8407;SDS011;4241;48.452;9.216;2023-06-22T11:39:09;516.17;;;435.88;;
8407;SDS011;4241;48.452;9.216;2023-06-22T11:41:37;514.25;;;431.88;;
8407;SDS011;4241;48.452;9.216;2023-06-22T11:44:04;515.90;;;433.45;;
8407;SDS011;4241;48.452;9.216;2023-06-22T11:46:31;514.40;;;431.58;;
8407;SDS011;4241;48.452;9.216;2023-06-22T11:49:01;518.08;;;438.30;;
8407;SDS011;4241;48.452;9.216;2023-06-22T11:51:28;518.10;;;440.90;;
8407;SDS011;4241;48.452;9.216;2023-06-22T11:53:56;516.85;;;441.48;;
8407;SDS011;4241;48.452;9.216;2023-06-22T11:56:23;519.30;;;446.75;;
8407;SDS011;4241;48.452;9.216;2023-06-22T11:58:50;516.17;;;442.60;;
8407;SDS011;4241;48.452;9.216;2023-06-22T12:01:19;521.08;;;452.63;;
8407;SDS011;4241;48.452;9.216;2023-06-22T12:03:46;518.40;;;451.45;;
8407;SDS011;4241;48.452;9.216;2023-06-22T12:06:15;519.00;;;453.52;;
8407;SDS011;4241;48.452;9.216;2023-06-22T12:08:42;519.58;;;454.70;;
8407;SDS011;4241;48.452;9.216;2023-06-22T12:11:09;519.35;;;451.10;;
8407;SDS011;4241;48.452;9.216;2023-06-22T12:13:36;518.67;;;451.83;;
8407;SDS011;4241;48.452;9.216;2023-06-22T12:16:03;518.03;;;444.45;;
8407;SDS011;4241;48.452;9.216;2023-06-22T12:18:31;516.78;;;438.27;;
8407;SDS011;4241;48.452;9.216;2023-06-22T12:20:58;516.17;;;438.83;;
8407;SDS011;4241;48.452;9.216;2023-06-22T12:23:26;517.95;;;438.33;;
8407;SDS011;4241;48.452;9.216;2023-06-22T12:25:53;517.65;;;434.02;;
8407;SDS011;4241;48.452;9.216;2023-06-22T12:28:20;517.53;;;425.92;;
8407;SDS011;4241;48.452;9.216;2023-06-22T12:30:48;514.30;;;417.50;;
8407;SDS011;4241;48.452;9.216;2023-06-22T12:33:15;512.78;;;411.60;;
8407;SDS011;4241;48.452;9.216;2023-06-22T12:35:43;514.97;;;412.40;;
8407;SDS011;4241;48.452;9.216;2023-06-22T12:38:11;511.67;;;406.13;;
8407;SDS011;4241;48.452;9.216;2023-06-22T12:40:39;525.85;;;422.42;;
8407;SDS011;4241;48.452;9.216;2023-06-22T12:43:06;514.47;;;406.92;;
8407;SDS011;4241;48.452;9.216;2023-06-22T12:45:33;519.70;;;413.85;;
8407;SDS011;4241;48.452;9.216;2023-06-22T12:48:00;516.33;;;407.48;;
8407;SDS011;4241;48.452;9.216;2023-06-22T12:50:28;513.40;;;406.27;;
8407;SDS011;4241;48.452;9.216;2023-06-22T12:52:55;513.85;;;406.00;;
8407;SDS011;4241;48.452;9.216;2023-06-22T12:55:22;514.80;;;407.58;;
8407;SDS011;4241;48.452;9.216;2023-06-22T12:57:51;361.17;;;273.85;;
8407;SDS011;4241;48.452;9.216;2023-06-22T13:00:18;513.20;;;407.10;;
8407;SDS011;4241;48.452;9.216;2023-06-22T13:02:45;515.72;;;413.58;;
8407;SDS011;4241;48.452;9.216;2023-06-22T13:05:12;514.60;;;412.50;;
8407;SDS011;4241;48.452;9.216;2023-06-22T13:07:39;517.30;;;417.27;;
8407;SDS011;4241;48.452;9.216;2023-06-22T13:10:07;516.03;;;416.88;;
8407;SDS011;4241;48.452;9.216;2023-06-22T13:12:35;519.92;;;427.42;;
8407;SDS011;4241;48.452;9.216;2023-06-22T13:15:03;519.63;;;433.00;;
8407;SDS011;4241;48.452;9.216;2023-06-22T13:17:31;518.30;;;432.95;;
8407;SDS011;4241;48.452;9.216;2023-06-22T13:19:58;520.22;;;435.60;;
8407;SDS011;4241;48.452;9.216;2023-06-22T13:22:26;532.85;;;451.50;;
8407;SDS011;4241;48.452;9.216;2023-06-22T13:24:54;519.35;;;432.77;;
8407;SDS011;4241;48.452;9.216;2023-06-22T13:27:21;517.58;;;434.25;;
8407;SDS011;4241;48.452;9.216;2023-06-22T13:29:48;521.00;;;436.05;;
8407;SDS011;4241;48.452;9.216;2023-06-22T13:32:16;512.40;;;423.77;;
8407;SDS011;4241;48.452;9.216;2023-06-22T13:34:44;521.72;;;436.08;;
8407;SDS011;4241;48.452;9.216;2023-06-22T13:37:12;518.55;;;431.58;;
8407;SDS011;4241;48.452;9.216;2023-06-22T13:39:39;515.88;;;423.23;;
8407;SDS011;4241;48.452;9.216;2023-06-22T13:42:06;515.75;;;420.77;;
8407;SDS011;4241;48.452;9.216;2023-06-22T13:44:33;515.97;;;422.38;;
8407;SDS011;4241;48.452;9.216;2023-06-22T13:47:00;519.20;;;422.38;;
8407;SDS011;4241;48.452;9.216;2023-06-22T13:49:29;515.83;;;419.88;;
8407;SDS011;4241;48.452;9.216;2023-06-22T13:51:56;516.08;;;417.75;;
8407;SDS011;4241;48.452;9.216;2023-06-22T13:54:23;513.45;;;414.67;;
8407;SDS011;4241;48.452;9.216;2023-06-22T13:56:50;515.70;;;414.48;;
8407;SDS011;4241;48.452;9.216;2023-06-22T13:59:18;512.65;;;410.80;;
8407;SDS011;4241;48.452;9.216;2023-06-22T14:01:46;519.17;;;421.08;;
8407;SDS011;4241;48.452;9.216;2023-06-22T14:04:13;514.22;;;413.95;;
8407;SDS011;4241;48.452;9.216;2023-06-22T14:06:41;514.97;;;409.55;;
8407;SDS011;4241;48.452;9.216;2023-06-22T14:09:08;513.42;;;408.30;;
8407;SDS011;4241;48.452;9.216;2023-06-22T14:11:35;516.25;;;412.23;;
8407;SDS011;4241;48.452;9.216;2023-06-22T14:14:03;514.78;;;413.15;;
8407;SDS011;4241;48.452;9.216;2023-06-22T14:16:32;515.70;;;412.65;;
8407;SDS011;4241;48.452;9.216;2023-06-22T14:19:00;515.20;;;410.98;;
8407;SDS011;4241;48.452;9.216;2023-06-22T14:21:27;515.22;;;413.25;;
8407;SDS011;4241;48.452;9.216;2023-06-22T14:23:55;516.15;;;415.75;;